Berne, Iowa
Current Conditions -  °F | °C
As of 10:15 AM on Sunday 23 Nov 2014 (Local Time) from KDNS Reporting Station
Overcast Overcast  
Wind Chill: 54°   Ceiling: 700
Heat Index: 54°   Visibility: 10mi
Dew Point: 54°   Wind: 10mph
Humidity: 100%   Direction: 230°SW
Pressure: 29.44"   Gusts: NA
Location:  42.079°N, 95.7292°W
Report Text: KDNS 231615Z AUTO 23009KT 10SM OVC007 12/12 A2944 RMK AO2
Loading
Personal Weather Stations






























Interactive Weather Map New forecast layout! Learn more

10-Day Weather Forecast

Advertisements
Track Severe Weather on mobile